Time,TemperatureF,DewpointF,PressureIn,WindDirection,WindDirectionDegrees,WindSpeedMPH,WindSpeedGustMPH,Humidity,HourlyPrecipIn,Conditions,Clouds,dailyrainin,SoftwareType,DateUTC
2013-07-16 00:02:00,73.9,68.4,30.12,ESE,110,0.0,0.0,83,0.00,,,0.00,Wunderground v.1.15,2013-07-16 05:02:00,
2013-07-16 00:07:00,73.7,68.2,30.12,ESE,111,0.0,0.0,83,0.00,,,0.00,Wunderground v.1.15,2013-07-16 05:07:00,
2013-07-16 00:13:00,73.7,68.6,30.12,ESE,112,0.0,0.0,84,0.00,,,0.00,Wunderground v.1.15,2013-07-16 05:13:00,
2013-07-16 00:19:00,73.6,68.5,30.12,ESE,111,0.0,0.0,84,0.00,,,0.00,Wunderground v.1.15,2013-07-16 05:19:00,
2013-07-16 00:24:00,73.7,68.6,30.12,ESE,103,0.0,2.0,84,0.00,,,0.00,Wunderground v.1.15,2013-07-16 05:24:00,
2013-07-16 00:30:00,73.6,68.5,30.12,ESE,113,0.0,1.0,84,0.00,,,0.00,Wunderground v.1.15,2013-07-16 05:30:00,
2013-07-16 00:36:00,73.6,68.5,30.12,ESE,102,2.0,2.0,84,0.00,,,0.00,Wunderground v.1.15,2013-07-16 05:36:00,
2013-07-16 00:42:00,73.5,68.4,30.13,NNE,15,0.0,2.0,84,0.00,,,0.00,Wunderground v.1.15,2013-07-16 05:42:00,
2013-07-16 00:47:00,73.4,68.6,30.13,SSW,194,0.0,2.0,85,0.00,,,0.00,Wunderground v.1.15,2013-07-16 05:47:00,
2013-07-16 00:53:00,73.2,68.4,30.13,SSW,194,0.0,0.0,85,0.00,,,0.00,Wunderground v.1.15,2013-07-16 05:53:00,
2013-07-16 00:59:00,72.9,68.1,30.13,SSW,194,0.0,0.0,85,0.00,,,0.00,Wunderground v.1.15,2013-07-16 05:59:00,
2013-07-16 01:05:00,72.6,68.2,30.12,SSW,194,0.0,0.0,86,0.00,,,0.00,Wunderground v.1.15,2013-07-16 06:05:00,
2013-07-16 01:11:00,72.5,68.1,30.12,South,181,0.0,0.0,86,0.00,,,0.00,Wunderground v.1.15,2013-07-16 06:11:00,
2013-07-16 01:16:00,72.4,68.3,30.12,South,181,0.0,0.0,87,0.00,,,0.00,Wunderground v.1.15,2013-07-16 06:16:00,
2013-07-16 01:22:00,72.4,68.3,30.12,ESE,122,1.0,1.0,87,0.00,,,0.00,Wunderground v.1.15,2013-07-16 06:22:00,
2013-07-16 01:28:00,72.3,68.2,30.12,SE,132,2.0,2.0,87,0.00,,,0.00,Wunderground v.1.15,2013-07-16 06:28:00,
2013-07-16 01:33:00,72.3,68.2,30.12,East,96,0.0,2.0,87,0.00,,,0.00,Wunderground v.1.15,2013-07-16 06:33:00,
2013-07-16 01:39:00,72.2,68.1,30.13,East,98,0.0,2.0,87,0.00,,,0.00,Wunderground v.1.15,2013-07-16 06:39:00,
2013-07-16 01:45:00,72.0,68.2,30.13,East,98,0.0,0.0,88,0.00,,,0.00,Wunderground v.1.15,2013-07-16 06:45:00,
2013-07-16 01:51:00,71.8,68.4,30.13,East,98,0.0,0.0,89,0.00,,,0.00,Wunderground v.1.15,2013-07-16 06:51:00,
2013-07-16 01:56:00,71.5,68.1,30.13,East,98,0.0,0.0,89,0.00,,,0.00,Wunderground v.1.15,2013-07-16 06:56:00,
2013-07-16 02:01:00,71.4,68.0,30.12,East,98,0.0,0.0,89,0.00,,,0.00,Wunderground v.1.15,2013-07-16 07:01:00,
2013-07-16 02:06:00,71.3,67.9,30.12,East,98,0.0,0.0,89,0.00,,,0.00,Wunderground v.1.15,2013-07-16 07:06:00,
2013-07-16 02:11:00,71.2,67.8,30.13,East,98,0.0,0.0,89,0.00,,,0.00,Wunderground v.1.15,2013-07-16 07:11:00,
2013-07-16 02:16:00,71.1,68.0,30.13,East,98,0.0,0.0,90,0.00,,,0.00,Wunderground v.1.15,2013-07-16 07:16:00,
2013-07-16 02:21:00,70.9,67.5,30.13,East,98,0.0,0.0,89,0.00,,,0.00,Wunderground v.1.15,2013-07-16 07:21:00,
2013-07-16 02:26:00,70.7,67.6,30.13,East,98,0.0,0.0,90,0.00,,,0.00,Wunderground v.1.15,2013-07-16 07:26:00,
2013-07-16 02:31:00,70.7,67.9,30.13,East,98,0.0,1.0,91,0.00,,,0.00,Wunderground v.1.15,2013-07-16 07:31:00,
2013-07-16 02:36:00,70.6,67.8,30.13,East,98,0.0,1.0,91,0.00,,,0.00,Wunderground v.1.15,2013-07-16 07:36:00,
2013-07-16 02:41:00,70.6,67.8,30.13,East,99,0.0,0.0,91,0.00,,,0.00,Wunderground v.1.15,2013-07-16 07:41:00,
2013-07-16 02:46:00,70.4,67.6,30.12,East,99,0.0,0.0,91,0.00,,,0.00,Wunderground v.1.15,2013-07-16 07:46:00,
2013-07-16 02:51:00,70.2,67.4,30.13,SSW,200,0.0,0.0,91,0.00,,,0.00,Wunderground v.1.15,2013-07-16 07:51:00,
2013-07-16 02:56:00,70.1,67.3,30.13,SSW,200,0.0,1.0,91,0.00,,,0.00,Wunderground v.1.15,2013-07-16 07:56:00,
2013-07-16 03:01:00,70.0,67.3,30.13,SSW,200,0.0,0.0,91,0.00,,,0.00,Wunderground v.1.15,2013-07-16 08:01:00,
2013-07-16 03:06:00,69.8,67.1,30.13,SSW,200,0.0,0.0,91,0.00,,,0.00,Wunderground v.1.15,2013-07-16 08:06:00,
2013-07-16 03:11:00,69.7,67.3,30.13,SSW,200,0.0,0.0,92,0.00,,,0.00,Wunderground v.1.15,2013-07-16 08:11:00,
2013-07-16 03:16:00,69.7,67.6,30.13,South,181,0.0,1.0,93,0.00,,,0.00,Wunderground v.1.15,2013-07-16 08:16:00,
2013-07-16 03:21:00,69.8,67.7,30.13,South,181,0.0,0.0,93,0.00,,,0.00,Wunderground v.1.15,2013-07-16 08:21:00,
2013-07-16 03:26:00,69.6,67.5,30.13,South,181,0.0,0.0,93,0.00,,,0.00,Wunderground v.1.15,2013-07-16 08:26:00,
2013-07-16 03:31:00,69.6,67.5,30.13,South,181,0.0,0.0,93,0.00,,,0.00,Wunderground v.1.15,2013-07-16 08:31:00,
2013-07-16 03:36:00,69.5,67.4,30.13,South,181,0.0,0.0,93,0.00,,,0.00,Wunderground v.1.15,2013-07-16 08:36:00,
2013-07-16 03:41:00,69.4,67.3,30.13,South,181,0.0,0.0,93,0.00,,,0.00,Wunderground v.1.15,2013-07-16 08:41:00,
2013-07-16 03:46:00,69.2,67.1,30.14,South,181,0.0,0.0,93,0.00,,,0.00,Wunderground v.1.15,2013-07-16 08:46:00,
2013-07-16 03:51:00,69.1,67.0,30.14,South,181,0.0,0.0,93,0.00,,,0.00,Wunderground v.1.15,2013-07-16 08:51:00,
2013-07-16 03:56:00,69.2,67.4,30.14,South,181,0.0,0.0,94,0.00,,,0.00,Wunderground v.1.15,2013-07-16 08:56:00,
2013-07-16 04:01:00,69.1,67.3,30.14,South,181,0.0,0.0,94,0.00,,,0.00,Wunderground v.1.15,2013-07-16 09:01:00,
2013-07-16 04:06:00,69.0,67.2,30.14,South,181,0.0,0.0,94,0.00,,,0.00,Wunderground v.1.15,2013-07-16 09:06:00,
2013-07-16 04:11:00,69.0,67.2,30.14,South,181,0.0,0.0,94,0.00,,,0.00,Wunderground v.1.15,2013-07-16 09:11:00,
2013-07-16 04:16:00,68.9,67.1,30.14,South,181,0.0,0.0,94,0.00,,,0.00,Wunderground v.1.15,2013-07-16 09:16:00,
2013-07-16 04:21:00,68.8,67.0,30.14,South,181,0.0,0.0,94,0.00,,,0.00,Wunderground v.1.15,2013-07-16 09:21:00,
2013-07-16 04:26:00,68.7,66.9,30.14,South,181,0.0,0.0,94,0.00,,,0.00,Wunderground v.1.15,2013-07-16 09:26:00,
2013-07-16 04:31:00,68.9,67.4,30.14,South,181,0.0,0.0,95,0.00,,,0.00,Wunderground v.1.15,2013-07-16 09:31:00,
2013-07-16 04:36:00,69.1,67.6,30.15,South,181,0.0,0.0,95,0.00,,,0.00,Wunderground v.1.15,2013-07-16 09:36:00,
2013-07-16 04:41:00,69.2,67.7,30.15,SE,131,0.0,0.0,95,0.00,,,0.00,Wunderground v.1.15,2013-07-16 09:41:00,
2013-07-16 04:46:00,69.4,67.9,30.15,East,94,0.0,2.0,95,0.00,,,0.00,Wunderground v.1.15,2013-07-16 09:46:00,
2013-07-16 04:51:00,69.5,68.0,30.15,East,100,0.0,1.0,95,0.00,,,0.00,Wunderground v.1.15,2013-07-16 09:51:00,
2013-07-16 04:56:00,69.5,68.0,30.15,East,100,0.0,1.0,95,0.00,,,0.00,Wunderground v.1.15,2013-07-16 09:56:00,
2013-07-16 05:01:00,69.3,67.8,30.15,East,101,0.0,0.0,95,0.00,,,0.00,Wunderground v.1.15,2013-07-16 10:01:00,
2013-07-16 05:06:00,69.1,67.6,30.15,East,101,0.0,0.0,95,0.00,,,0.00,Wunderground v.1.15,2013-07-16 10:06:00,
2013-07-16 05:11:00,68.9,67.4,30.15,East,101,0.0,0.0,95,0.00,,,0.00,Wunderground v.1.15,2013-07-16 10:11:00,
2013-07-16 05:16:00,68.9,67.4,30.15,SW,231,1.0,2.0,95,0.00,,,0.00,Wunderground v.1.15,2013-07-16 10:16:00,
2013-07-16 05:21:00,68.8,67.3,30.15,SW,235,0.0,1.0,95,0.00,,,0.00,Wunderground v.1.15,2013-07-16 10:21:00,
2013-07-16 05:26:00,68.5,66.7,30.16,SE,143,0.0,1.0,94,0.00,,,0.00,Wunderground v.1.15,2013-07-16 10:26:00,
2013-07-16 05:31:00,68.4,66.9,30.16,South,177,0.0,0.0,95,0.00,,,0.00,Wunderground v.1.15,2013-07-16 10:31:00,
2013-07-16 05:36:00,68.5,67.0,30.16,ESE,121,0.0,0.0,95,0.00,,,0.00,Wunderground v.1.15,2013-07-16 10:36:00,
2013-07-16 05:41:00,68.6,67.1,30.16,SE,124,0.0,0.0,95,0.00,,,0.00,Wunderground v.1.15,2013-07-16 10:41:00,
2013-07-16 05:46:00,68.6,67.1,30.16,SE,124,0.0,0.0,95,0.00,,,0.00,Wunderground v.1.15,2013-07-16 10:46:00,
2013-07-16 05:51:00,68.4,66.9,30.16,SE,124,0.0,0.0,95,0.00,,,0.00,Wunderground v.1.15,2013-07-16 10:51:00,
2013-07-16 05:56:00,68.4,66.9,30.17,SE,124,0.0,0.0,95,0.00,,,0.00,Wunderground v.1.15,2013-07-16 10:56:00,
2013-07-16 06:01:00,68.3,66.8,30.17,SE,124,0.0,0.0,95,0.00,,,0.00,Wunderground v.1.15,2013-07-16 11:01:00,
2013-07-16 06:06:00,68.1,66.6,30.17,SE,124,0.0,0.0,95,0.00,,,0.00,Wunderground v.1.15,2013-07-16 11:06:00,
2013-07-16 06:11:00,68.1,66.6,30.17,SE,124,0.0,0.0,95,0.00,,,0.00,Wunderground v.1.15,2013-07-16 11:11:00,
2013-07-16 06:16:00,67.9,66.4,30.18,SE,135,0.0,0.0,95,0.00,,,0.00,Wunderground v.1.15,2013-07-16 11:16:00,
2013-07-16 06:21:00,67.7,66.2,30.18,SE,135,0.0,0.0,95,0.00,,,0.00,Wunderground v.1.15,2013-07-16 11:21:00,
2013-07-16 06:26:00,67.6,66.1,30.18,SE,135,0.0,0.0,95,0.00,,,0.00,Wunderground v.1.15,2013-07-16 11:26:00,
2013-07-16 06:31:00,67.5,66.0,30.18,SE,136,0.0,0.0,95,0.00,,,0.00,Wunderground v.1.15,2013-07-16 11:31:00,
2013-07-16 06:36:00,67.6,66.1,30.17,SE,135,0.0,0.0,95,0.00,,,0.00,Wunderground v.1.15,2013-07-16 11:36:00,
2013-07-16 06:41:00,67.8,66.6,30.18,SE,135,0.0,0.0,96,0.00,,,0.00,Wunderground v.1.15,2013-07-16 11:41:00,
2013-07-16 06:46:00,67.9,66.7,30.18,SE,135,0.0,0.0,96,0.00,,,0.00,Wunderground v.1.15,2013-07-16 11:46:00,
2013-07-16 06:51:00,68.0,66.8,30.18,SE,135,0.0,0.0,96,0.00,,,0.00,Wunderground v.1.15,2013-07-16 11:51:00,
2013-07-16 06:56:00,68.3,67.1,30.18,SE,136,0.0,0.0,96,0.00,,,0.00,Wunderground v.1.15,2013-07-16 11:56:00,
2013-07-16 07:01:00,68.7,67.5,30.17,SE,132,0.0,0.0,96,0.00,,,0.00,Wunderground v.1.15,2013-07-16 12:01:00,
2013-07-16 07:06:00,69.0,67.8,30.18,SE,132,0.0,0.0,96,0.00,,,0.00,Wunderground v.1.15,2013-07-16 12:06:00,
2013-07-16 07:11:00,69.4,68.2,30.18,SE,133,0.0,0.0,96,0.00,,,0.00,Wunderground v.1.15,2013-07-16 12:11:00,
2013-07-16 07:16:00,69.6,68.4,30.17,SE,133,0.0,0.0,96,0.00,,,0.00,Wunderground v.1.15,2013-07-16 12:16:00,
2013-07-16 07:21:00,69.9,68.4,30.18,SE,136,1.0,1.0,95,0.00,,,0.00,Wunderground v.1.15,2013-07-16 12:21:00,
2013-07-16 07:26:00,70.3,68.8,30.18,ESE,113,0.0,2.0,95,0.00,,,0.00,Wunderground v.1.15,2013-07-16 12:26:00,
2013-07-16 07:31:00,70.6,69.1,30.18,ESE,112,0.0,0.0,95,0.00,,,0.00,Wunderground v.1.15,2013-07-16 12:31:00,
2013-07-16 07:36:00,70.9,69.1,30.18,ESE,111,0.0,0.0,94,0.00,,,0.00,Wunderground v.1.15,2013-07-16 12:36:00,
2013-07-16 07:41:00,71.2,69.4,30.18,ESE,111,0.0,0.0,94,0.00,,,0.00,Wunderground v.1.15,2013-07-16 12:41:00,
2013-07-16 07:46:00,71.6,69.8,30.19,SE,124,1.0,3.0,94,0.00,,,0.00,Wunderground v.1.15,2013-07-16 12:46:00,
2013-07-16 07:51:00,71.9,69.8,30.19,ENE,68,3.0,3.0,93,0.00,,,0.00,Wunderground v.1.15,2013-07-16 12:51:00,
2013-07-16 07:56:00,72.4,70.3,30.19,ESE,102,0.0,3.0,93,0.00,,,0.00,Wunderground v.1.15,2013-07-16 12:56:00,
2013-07-16 08:01:00,72.7,70.2,30.19,NE,55,2.0,3.0,92,0.00,,,0.00,Wunderground v.1.15,2013-07-16 13:01:00,
2013-07-16 08:06:00,73.0,70.2,30.19,ENE,61,1.0,4.0,91,0.00,,,0.00,Wunderground v.1.15,2013-07-16 13:06:00,
2013-07-16 08:11:00,73.5,70.7,30.19,NE,53,2.0,3.0,91,0.00,,,0.00,Wunderground v.1.15,2013-07-16 13:11:00,
2013-07-16 08:16:00,73.9,70.5,30.19,ESE,107,0.0,3.0,89,0.00,,,0.00,Wunderground v.1.15,2013-07-16 13:16:00,
2013-07-16 08:21:00,74.4,70.9,30.19,ESE,108,1.0,2.0,89,0.00,,,0.00,Wunderground v.1.15,2013-07-16 13:21:00,
2013-07-16 08:26:00,74.9,70.8,30.20,ESE,117,2.0,3.0,87,0.00,,,0.00,Wunderground v.1.15,2013-07-16 13:26:00,
2013-07-16 08:31:00,75.8,71.3,30.19,ENE,65,2.0,3.0,86,0.00,,,0.00,Wunderground v.1.15,2013-07-16 13:31:00,
2013-07-16 08:36:00,76.4,71.2,30.19,ENE,65,1.0,3.0,84,0.00,,,0.00,Wunderground v.1.15,2013-07-16 13:36:00,
2013-07-16 08:41:00,77.0,71.4,30.19,NE,50,2.0,3.0,83,0.00,,,0.00,Wunderground v.1.15,2013-07-16 13:41:00,
2013-07-16 08:46:00,77.5,71.9,30.19,ESE,111,2.0,3.0,83,0.00,,,0.00,Wunderground v.1.15,2013-07-16 13:46:00,
2013-07-16 08:51:00,78.2,71.5,30.19,ENE,58,3.0,3.0,80,0.00,,,0.00,Wunderground v.1.15,2013-07-16 13:51:00,
2013-07-16 08:56:00,78.4,71.7,30.20,NE,42,3.0,4.0,80,0.00,,,0.00,Wunderground v.1.15,2013-07-16 13:56:00,
2013-07-16 09:01:00,78.9,71.8,30.20,SE,128,5.0,6.0,79,0.00,,,0.00,Wunderground v.1.15,2013-07-16 14:01:00,
2013-07-16 09:06:00,79.4,71.9,30.20,NNE,25,1.0,6.0,78,0.00,,,0.00,Wunderground v.1.15,2013-07-16 14:06:00,
2013-07-16 09:11:00,79.7,72.2,30.20,NNE,12,1.0,3.0,78,0.00,,,0.00,Wunderground v.1.15,2013-07-16 14:11:00,
2013-07-16 09:16:00,80.0,72.1,30.20,East,84,2.0,5.0,77,0.00,,,0.00,Wunderground v.1.15,2013-07-16 14:16:00,
2013-07-16 09:21:00,80.5,72.2,30.20,ESE,115,3.0,3.0,76,0.00,,,0.00,Wunderground v.1.15,2013-07-16 14:21:00,
2013-07-16 09:27:00,81.0,72.3,30.20,NNW,333,0.0,4.0,75,0.00,,,0.00,Wunderground v.1.15,2013-07-16 14:27:00,
2013-07-16 09:33:00,81.9,73.2,30.20,NNE,31,4.0,4.0,75,0.00,,,0.00,Wunderground v.1.15,2013-07-16 14:33:00,
2013-07-16 09:39:00,82.5,72.6,30.20,NNE,25,2.0,4.0,72,0.00,,,0.00,Wunderground v.1.15,2013-07-16 14:39:00,
2013-07-16 09:44:00,82.9,73.4,30.20,NNE,23,3.0,3.0,73,0.00,,,0.00,Wunderground v.1.15,2013-07-16 14:44:00,
2013-07-16 09:50:00,83.1,72.7,30.20,NNE,32,2.0,2.0,71,0.00,,,0.00,Wunderground v.1.15,2013-07-16 14:50:00,
2013-07-16 09:55:00,83.3,72.9,30.19,East,101,1.0,3.0,71,0.00,,,0.00,Wunderground v.1.15,2013-07-16 14:55:00,
2013-07-16 10:00:00,83.4,72.6,30.19,East,95,1.0,2.0,70,0.00,,,0.00,Wunderground v.1.15,2013-07-16 15:00:00,
2013-07-16 10:05:00,83.3,72.5,30.20,SE,127,0.0,2.0,70,0.00,,,0.00,Wunderground v.1.15,2013-07-16 15:05:00,
2013-07-16 10:10:00,83.3,72.1,30.19,SE,136,1.0,1.0,69,0.00,,,0.00,Wunderground v.1.15,2013-07-16 15:10:00,
2013-07-16 10:15:00,83.7,72.4,30.19,NNE,25,1.0,3.0,69,0.00,,,0.00,Wunderground v.1.15,2013-07-16 15:15:00,
2013-07-16 10:20:00,83.8,72.1,30.20,West,259,1.0,1.0,68,0.00,,,0.00,Wunderground v.1.15,2013-07-16 15:20:00,
2013-07-16 10:25:00,84.3,72.1,30.20,ESE,115,1.0,2.0,67,0.00,,,0.00,Wunderground v.1.15,2013-07-16 15:25:00,
2013-07-16 10:30:00,85.2,70.7,30.19,NE,52,3.0,5.0,62,0.00,,,0.00,Wunderground v.1.15,2013-07-16 15:30:00,
2013-07-16 10:35:00,85.6,72.0,30.20,NE,37,1.0,5.0,64,0.00,,,0.00,Wunderground v.1.15,2013-07-16 15:35:00,
2013-07-16 10:40:00,86.8,72.2,30.20,ENE,68,1.0,3.0,62,0.00,,,0.00,Wunderground v.1.15,2013-07-16 15:40:00,
2013-07-16 10:45:00,87.2,72.1,30.20,SSE,155,3.0,7.0,61,0.00,,,0.00,Wunderground v.1.15,2013-07-16 15:45:00,
2013-07-16 10:50:00,87.7,71.1,30.19,ESE,114,2.0,4.0,58,0.00,,,0.00,Wunderground v.1.15,2013-07-16 15:50:00,
2013-07-16 10:55:00,87.0,70.4,30.20,NE,42,3.0,5.0,58,0.00,,,0.00,Wunderground v.1.15,2013-07-16 15:55:00,
2013-07-16 11:00:00,87.2,71.6,30.19,SW,232,0.0,2.0,60,0.00,,,0.00,Wunderground v.1.15,2013-07-16 16:00:00,
2013-07-16 11:05:00,87.9,71.3,30.19,East,97,4.0,11.0,58,0.00,,,0.00,Wunderground v.1.15,2013-07-16 16:05:00,
2013-07-16 11:10:00,87.9,71.8,30.19,ENE,64,2.0,5.0,59,0.00,,,0.00,Wunderground v.1.15,2013-07-16 16:10:00,
2013-07-16 11:15:00,87.7,72.1,30.19,ENE,63,2.0,7.0,60,0.00,,,0.00,Wunderground v.1.15,2013-07-16 16:15:00,
2013-07-16 11:20:00,87.4,71.8,30.19,East,87,3.0,3.0,60,0.00,,,0.00,Wunderground v.1.15,2013-07-16 16:20:00,
2013-07-16 11:25:00,86.7,71.2,30.19,North,8,4.0,5.0,60,0.00,,,0.00,Wunderground v.1.15,2013-07-16 16:25:00,
2013-07-16 11:30:00,86.0,71.5,30.19,ESE,116,2.0,2.0,62,0.00,,,0.00,Wunderground v.1.15,2013-07-16 16:30:00,
2013-07-16 11:35:00,85.8,73.1,30.20,ESE,111,6.0,6.0,66,0.00,,,0.00,Wunderground v.1.15,2013-07-16 16:35:00,
2013-07-16 11:40:00,83.8,73.8,30.20,ESE,114,2.0,3.0,72,0.37,,,0.03,Wunderground v.1.15,2013-07-16 16:40:00,
2013-07-16 11:45:00,82.2,73.5,30.19,ESE,107,1.0,3.0,75,0.18,,,0.04,Wunderground v.1.15,2013-07-16 16:45:00,
2013-07-16 11:50:00,81.1,74.7,30.19,East,84,1.0,2.0,81,0.07,,,0.04,Wunderground v.1.15,2013-07-16 16:50:00,
2013-07-16 11:55:00,80.0,74.7,30.19,East,79,0.0,2.0,84,0.05,,,0.05,Wunderground v.1.15,2013-07-16 16:55:00,
2013-07-16 12:00:00,79.2,73.2,30.19,ENE,75,2.0,2.0,82,0.15,,,0.06,Wunderground v.1.15,2013-07-16 17:00:00,
2013-07-16 12:05:00,78.7,72.7,30.19,NNW,338,0.0,3.0,82,0.25,,,0.08,Wunderground v.1.15,2013-07-16 17:05:00,
2013-07-16 12:10:00,78.1,72.9,30.18,ESE,107,2.0,3.0,84,0.08,,,0.08,Wunderground v.1.15,2013-07-16 17:10:00,
2013-07-16 12:15:00,77.7,72.8,30.18,East,98,0.0,3.0,85,0.05,,,0.08,Wunderground v.1.15,2013-07-16 17:15:00,
2013-07-16 12:20:00,77.8,73.3,30.18,NW,322,0.0,1.0,86,0.00,,,0.08,Wunderground v.1.15,2013-07-16 17:20:00,
2013-07-16 12:25:00,77.9,73.7,30.18,SW,233,0.0,2.0,87,0.00,,,0.08,Wunderground v.1.15,2013-07-16 17:25:00,
2013-07-16 12:30:00,78.1,72.9,30.18,NNE,32,1.0,2.0,84,0.00,,,0.08,Wunderground v.1.15,2013-07-16 17:30:00,
2013-07-16 12:35:00,77.9,73.0,30.19,West,274,0.0,2.0,85,0.00,,,0.08,Wunderground v.1.15,2013-07-16 17:35:00,
2013-07-16 12:40:00,78.1,73.9,30.18,WNW,295,1.0,2.0,87,0.00,,,0.08,Wunderground v.1.15,2013-07-16 17:40:00,
2013-07-16 12:45:00,79.0,73.0,30.17,ENE,73,3.0,4.0,82,0.00,,,0.08,Wunderground v.1.15,2013-07-16 17:45:00,
2013-07-16 12:50:00,79.8,74.9,30.17,SSW,213,1.0,1.0,85,0.00,,,0.08,Wunderground v.1.15,2013-07-16 17:50:00,
2013-07-16 12:55:00,80.3,73.2,30.17,WNW,298,0.0,2.0,79,0.00,,,0.08,Wunderground v.1.15,2013-07-16 17:55:00,
2013-07-16 13:00:00,79.7,71.8,30.18,ENE,78,2.0,2.0,77,0.00,,,0.08,Wunderground v.1.15,2013-07-16 18:00:00,
2013-07-16 13:05:00,78.3,72.3,30.17,East,84,0.0,3.0,82,0.35,,,0.12,Wunderground v.1.15,2013-07-16 18:05:00,
2013-07-16 13:10:00,77.1,71.9,30.17,ENE,75,0.0,1.0,84,0.09,,,0.12,Wunderground v.1.15,2013-07-16 18:10:00,
2013-07-16 13:15:00,76.7,72.2,30.17,ESE,105,0.0,2.0,86,0.05,,,0.12,Wunderground v.1.15,2013-07-16 18:15:00,
2013-07-16 13:20:00,76.6,72.8,30.17,WSW,257,0.0,1.0,88,0.04,,,0.12,Wunderground v.1.15,2013-07-16 18:20:00,
2013-07-16 13:25:00,76.2,71.4,30.17,WNW,298,4.0,5.0,85,0.00,,,0.12,Wunderground v.1.15,2013-07-16 18:25:00,
2013-07-16 13:30:00,75.3,70.5,30.18,WSW,249,2.0,2.0,85,0.00,,,0.12,Wunderground v.1.15,2013-07-16 18:30:00,
2013-07-16 13:35:00,74.9,70.4,30.18,WNW,297,3.0,4.0,86,0.00,,,0.12,Wunderground v.1.15,2013-07-16 18:35:00,
2013-07-16 13:40:00,74.8,70.3,30.17,WSW,257,4.0,7.0,86,0.00,,,0.12,Wunderground v.1.15,2013-07-16 18:40:00,
2013-07-16 13:45:00,74.6,70.8,30.18,West,278,4.0,11.0,88,0.00,,,0.12,Wunderground v.1.15,2013-07-16 18:45:00,
2013-07-16 13:50:00,74.4,70.6,30.18,West,266,4.0,6.0,88,0.00,,,0.12,Wunderground v.1.15,2013-07-16 18:50:00,
2013-07-16 13:55:00,74.2,70.4,30.18,WNW,298,3.0,9.0,88,0.00,,,0.12,Wunderground v.1.15,2013-07-16 18:55:00,
2013-07-16 14:00:00,74.2,70.7,30.17,WNW,294,0.0,3.0,89,0.00,,,0.12,Wunderground v.1.15,2013-07-16 19:00:00,
2013-07-16 14:05:00,74.3,71.2,30.18,West,262,1.0,3.0,90,0.00,,,0.12,Wunderground v.1.15,2013-07-16 19:05:00,
2013-07-16 14:10:00,74.5,71.0,30.18,West,280,2.0,3.0,89,0.00,,,0.12,Wunderground v.1.15,2013-07-16 19:10:00,
2013-07-16 14:15:00,74.6,71.1,30.18,WNW,282,3.0,4.0,89,0.00,,,0.12,Wunderground v.1.15,2013-07-16 19:15:00,
2013-07-16 14:20:00,74.5,70.7,30.17,SW,224,1.0,5.0,88,0.00,,,0.12,Wunderground v.1.15,2013-07-16 19:20:00,
2013-07-16 14:25:00,74.5,70.7,30.17,West,262,3.0,5.0,88,0.00,,,0.12,Wunderground v.1.15,2013-07-16 19:25:00,
2013-07-16 14:30:00,74.5,70.7,30.18,West,276,1.0,2.0,88,0.00,,,0.12,Wunderground v.1.15,2013-07-16 19:30:00,
2013-07-16 14:35:00,74.5,70.4,30.18,SSW,205,2.0,4.0,87,0.00,,,0.12,Wunderground v.1.15,2013-07-16 19:35:00,
2013-07-16 14:40:00,74.4,69.6,30.17,West,270,3.0,4.0,85,0.00,,,0.12,Wunderground v.1.15,2013-07-16 19:40:00,
2013-07-16 14:45:00,74.3,69.1,30.17,NW,305,3.0,5.0,84,0.00,,,0.12,Wunderground v.1.15,2013-07-16 19:45:00,
2013-07-16 14:50:00,74.1,69.0,30.17,West,259,1.0,3.0,84,0.00,,,0.12,Wunderground v.1.15,2013-07-16 19:50:00,
2013-07-16 14:55:00,74.1,69.0,30.17,WNW,295,1.0,3.0,84,0.00,,,0.12,Wunderground v.1.15,2013-07-16 19:55:00,
2013-07-16 15:00:00,74.1,69.0,30.16,WNW,288,1.0,4.0,84,0.00,,,0.12,Wunderground v.1.15,2013-07-16 20:00:00,
2013-07-16 15:05:00,74.1,69.3,30.17,West,269,2.0,4.0,85,0.00,,,0.12,Wunderground v.1.15,2013-07-16 20:05:00,
2013-07-16 15:06:00,74.1,69.3,30.17,SW,233,1.0,4.0,85,0.00,,,0.12,Wunderground v.1.15,2013-07-16 20:06:00,
2013-07-16 15:11:00,74.1,69.3,30.16,WNW,283,0.0,2.0,85,0.00,,,0.12,Wunderground v.1.15,2013-07-16 20:11:00,
2013-07-16 15:16:00,74.4,69.9,30.16,West,267,0.0,2.0,86,0.00,,,0.12,Wunderground v.1.15,2013-07-16 20:16:00,
2013-07-16 15:21:00,74.5,70.0,30.16,West,260,0.0,1.0,86,0.00,,,0.12,Wunderground v.1.15,2013-07-16 20:21:00,
2013-07-16 15:26:00,74.6,70.1,30.16,West,259,0.0,1.0,86,0.00,,,0.12,Wunderground v.1.15,2013-07-16 20:26:00,
2013-07-16 15:32:00,74.7,70.6,30.16,SE,124,1.0,1.0,87,0.00,,,0.12,Wunderground v.1.15,2013-07-16 20:32:00,
2013-07-16 15:37:00,74.7,70.6,30.16,SW,215,0.0,1.0,87,0.00,,,0.12,Wunderground v.1.15,2013-07-16 20:37:00,
2013-07-16 15:42:00,74.7,70.9,30.15,SW,228,1.0,2.0,88,0.00,,,0.12,Wunderground v.1.15,2013-07-16 20:42:00,
2013-07-16 15:47:00,74.4,70.6,30.16,WSW,240,2.0,2.0,88,0.00,,,0.12,Wunderground v.1.15,2013-07-16 20:47:00,
2013-07-16 15:52:00,74.3,70.8,30.16,SE,127,1.0,2.0,89,0.00,,,0.12,Wunderground v.1.15,2013-07-16 20:52:00,
2013-07-16 15:57:00,74.3,71.2,30.16,ESE,117,2.0,2.0,90,0.00,,,0.12,Wunderground v.1.15,2013-07-16 20:57:00,
2013-07-16 16:02:00,74.3,71.2,30.17,East,84,1.0,3.0,90,0.00,,,0.12,Wunderground v.1.15,2013-07-16 21:02:00,
2013-07-16 16:07:00,74.4,71.3,30.16,ENE,66,0.0,3.0,90,0.44,,,0.21,Wunderground v.1.15,2013-07-16 21:07:00,
2013-07-16 16:12:00,74.3,71.5,30.16,WNW,290,0.0,1.0,91,0.10,,,0.21,Wunderground v.1.15,2013-07-16 21:12:00,
2013-07-16 16:17:00,74.2,71.7,30.16,West,263,1.0,2.0,92,0.05,,,0.21,Wunderground v.1.15,2013-07-16 21:17:00,
2013-07-16 16:22:00,74.2,72.0,30.15,SW,236,0.0,1.0,93,0.04,,,0.21,Wunderground v.1.15,2013-07-16 21:22:00,
2013-07-16 16:27:00,74.3,72.1,30.16,WSW,248,0.0,1.0,93,0.00,,,0.21,Wunderground v.1.15,2013-07-16 21:27:00,
2013-07-16 16:32:00,74.4,72.2,30.16,WSW,248,0.0,0.0,93,0.00,,,0.21,Wunderground v.1.15,2013-07-16 21:32:00,
2013-07-16 16:37:00,74.4,72.2,30.16,WSW,248,0.0,1.0,93,0.00,,,0.21,Wunderground v.1.15,2013-07-16 21:37:00,
2013-07-16 16:42:00,74.5,72.3,30.16,WSW,248,0.0,0.0,93,0.00,,,0.21,Wunderground v.1.15,2013-07-16 21:42:00,
2013-07-16 16:47:00,74.6,72.4,30.16,WSW,248,0.0,0.0,93,0.00,,,0.21,Wunderground v.1.15,2013-07-16 21:47:00,
2013-07-16 16:52:00,74.8,72.6,30.15,WSW,248,0.0,0.0,93,0.00,,,0.21,Wunderground v.1.15,2013-07-16 21:52:00,
2013-07-16 16:57:00,75.1,72.9,30.15,WSW,248,0.0,1.0,93,0.00,,,0.21,Wunderground v.1.15,2013-07-16 21:57:00,
2013-07-16 17:02:00,75.7,73.2,30.15,WSW,248,0.0,1.0,92,0.00,,,0.21,Wunderground v.1.15,2013-07-16 22:02:00,
2013-07-16 17:07:00,76.3,73.5,30.15,WSW,248,0.0,1.0,91,0.00,,,0.21,Wunderground v.1.15,2013-07-16 22:07:00,
2013-07-16 17:12:00,77.0,74.5,30.15,WSW,248,0.0,0.0,92,0.00,,,0.21,Wunderground v.1.15,2013-07-16 22:12:00,
2013-07-16 17:17:00,77.7,74.5,30.15,NW,321,0.0,0.0,90,0.00,,,0.21,Wunderground v.1.15,2013-07-16 22:17:00,
2013-07-16 17:22:00,77.9,74.4,30.16,NE,53,0.0,0.0,89,0.00,,,0.21,Wunderground v.1.15,2013-07-16 22:22:00,
2013-07-16 17:27:00,77.6,73.8,30.16,ENE,64,0.0,0.0,88,0.00,,,0.21,Wunderground v.1.15,2013-07-16 22:27:00,
2013-07-16 17:32:00,77.6,74.4,30.17,NE,53,2.0,2.0,90,0.00,,,0.21,Wunderground v.1.15,2013-07-16 22:32:00,
2013-07-16 17:37:00,77.4,74.2,30.17,NE,54,2.0,3.0,90,0.00,,,0.21,Wunderground v.1.15,2013-07-16 22:37:00,
2013-07-16 17:42:00,77.3,73.8,30.17,ENE,66,0.0,2.0,89,0.00,,,0.21,Wunderground v.1.15,2013-07-16 22:42:00,
2013-07-16 17:47:00,77.6,74.1,30.17,West,264,1.0,2.0,89,0.00,,,0.21,Wunderground v.1.15,2013-07-16 22:47:00,
2013-07-16 17:52:00,77.9,73.7,30.17,West,273,0.0,1.0,87,0.00,,,0.21,Wunderground v.1.15,2013-07-16 22:52:00,
2013-07-16 17:57:00,78.2,74.4,30.17,West,273,0.0,1.0,88,0.00,,,0.21,Wunderground v.1.15,2013-07-16 22:57:00,
2013-07-16 18:02:00,78.2,74.0,30.17,West,273,0.0,0.0,87,0.00,,,0.21,Wunderground v.1.15,2013-07-16 23:02:00,
2013-07-16 18:07:00,78.1,73.6,30.17,West,273,0.0,0.0,86,0.00,,,0.21,Wunderground v.1.15,2013-07-16 23:07:00,
2013-07-16 18:12:00,78.4,73.9,30.16,West,273,0.0,0.0,86,0.00,,,0.21,Wunderground v.1.15,2013-07-16 23:12:00,
2013-07-16 18:17:00,78.8,74.3,30.16,West,273,0.0,0.0,86,0.00,,,0.21,Wunderground v.1.15,2013-07-16 23:17:00,
2013-07-16 18:22:00,79.0,74.5,30.16,West,273,0.0,1.0,86,0.00,,,0.21,Wunderground v.1.15,2013-07-16 23:22:00,
2013-07-16 18:27:00,79.0,74.8,30.16,West,273,0.0,1.0,87,0.00,,,0.21,Wunderground v.1.15,2013-07-16 23:27:00,
2013-07-16 18:32:00,79.2,75.3,30.16,West,273,0.0,0.0,88,0.00,,,0.21,Wunderground v.1.15,2013-07-16 23:32:00,
2013-07-16 18:37:00,79.1,74.9,30.16,West,273,0.0,0.0,87,0.00,,,0.21,Wunderground v.1.15,2013-07-16 23:37:00,
2013-07-16 18:42:00,79.4,74.8,30.16,West,273,0.0,0.0,86,0.00,,,0.21,Wunderground v.1.15,2013-07-16 23:42:00,
2013-07-16 18:47:00,79.5,74.9,30.16,West,273,0.0,0.0,86,0.00,,,0.21,Wunderground v.1.15,2013-07-16 23:47:00,
2013-07-16 18:52:00,79.4,74.8,30.16,West,273,0.0,0.0,86,0.00,,,0.21,Wunderground v.1.15,2013-07-16 23:52:00,
2013-07-16 18:57:00,79.1,74.9,30.17,West,273,0.0,0.0,87,0.00,,,0.21,Wunderground v.1.15,2013-07-16 23:57:00,
2013-07-16 19:02:00,78.9,75.0,30.16,WSW,252,0.0,1.0,88,0.00,,,0.21,Wunderground v.1.15,2013-07-17 00:02:00,
2013-07-16 19:07:00,78.9,75.0,30.16,WSW,249,0.0,1.0,88,0.00,,,0.21,Wunderground v.1.15,2013-07-17 00:07:00,
2013-07-16 19:12:00,78.8,74.6,30.16,WSW,253,0.0,0.0,87,0.00,,,0.21,Wunderground v.1.15,2013-07-17 00:12:00,
2013-07-16 19:17:00,78.8,74.6,30.16,WSW,253,0.0,0.0,87,0.00,,,0.21,Wunderground v.1.15,2013-07-17 00:17:00,
2013-07-16 19:22:00,78.7,74.5,30.16,WSW,253,0.0,0.0,87,0.00,,,0.21,Wunderground v.1.15,2013-07-17 00:22:00,
2013-07-16 19:27:00,78.8,74.9,30.16,WSW,253,0.0,0.0,88,0.00,,,0.21,Wunderground v.1.15,2013-07-17 00:27:00,
2013-07-16 19:32:00,78.8,74.6,30.16,WSW,253,0.0,1.0,87,0.00,,,0.21,Wunderground v.1.15,2013-07-17 00:32:00,
2013-07-16 19:37:00,78.7,74.8,30.16,WSW,253,0.0,1.0,88,0.00,,,0.21,Wunderground v.1.15,2013-07-17 00:37:00,
2013-07-16 19:42:00,78.6,74.7,30.16,WSW,253,0.0,0.0,88,0.00,,,0.21,Wunderground v.1.15,2013-07-17 00:42:00,
2013-07-16 19:47:00,78.6,75.1,30.16,WSW,252,0.0,0.0,89,0.00,,,0.21,Wunderground v.1.15,2013-07-17 00:47:00,
2013-07-16 19:52:00,78.6,75.1,30.16,WSW,252,0.0,1.0,89,0.00,,,0.21,Wunderground v.1.15,2013-07-17 00:52:00,
2013-07-16 19:57:00,78.5,75.0,30.16,WSW,252,0.0,1.0,89,0.00,,,0.21,Wunderground v.1.15,2013-07-17 00:57:00,
2013-07-16 20:02:00,78.3,74.8,30.17,WSW,252,0.0,0.0,89,0.00,,,0.21,Wunderground v.1.15,2013-07-17 01:02:00,
2013-07-16 20:07:00,78.0,74.8,30.17,WSW,252,0.0,0.0,90,0.00,,,0.21,Wunderground v.1.15,2013-07-17 01:07:00,
2013-07-16 20:12:00,77.9,75.4,30.17,North,11,0.0,1.0,92,0.00,,,0.21,Wunderground v.1.15,2013-07-17 01:12:00,
2013-07-16 20:17:00,77.5,75.0,30.17,North,11,0.0,1.0,92,0.00,,,0.21,Wunderground v.1.15,2013-07-17 01:17:00,
2013-07-16 20:22:00,77.2,75.0,30.17,NNE,12,0.0,1.0,93,0.00,,,0.21,Wunderground v.1.15,2013-07-17 01:22:00,
2013-07-16 20:27:00,76.8,74.6,30.17,NNE,12,0.0,1.0,93,0.00,,,0.21,Wunderground v.1.15,2013-07-17 01:27:00,
2013-07-16 20:32:00,76.6,74.4,30.17,North,11,0.0,0.0,93,0.00,,,0.21,Wunderground v.1.15,2013-07-17 01:32:00,
2013-07-16 20:37:00,76.4,74.2,30.17,NNE,12,0.0,0.0,93,0.00,,,0.21,Wunderground v.1.15,2013-07-17 01:37:00,
2013-07-16 20:42:00,76.2,74.3,30.17,North,9,0.0,2.0,94,0.00,,,0.21,Wunderground v.1.15,2013-07-17 01:42:00,
2013-07-16 20:47:00,76.0,74.1,30.17,North,9,0.0,2.0,94,0.00,,,0.21,Wunderground v.1.15,2013-07-17 01:47:00,
2013-07-16 20:52:00,75.7,73.8,30.17,North,9,0.0,0.0,94,0.00,,,0.21,Wunderground v.1.15,2013-07-17 01:52:00,
2013-07-16 20:57:00,75.6,73.8,30.17,North,9,0.0,0.0,94,0.00,,,0.21,Wunderground v.1.15,2013-07-17 01:57:00,
2013-07-16 21:02:00,75.4,73.6,30.17,North,9,0.0,0.0,94,0.00,,,0.21,Wunderground v.1.15,2013-07-17 02:02:00,
2013-07-16 21:07:00,75.3,73.8,30.18,North,9,0.0,0.0,95,0.00,,,0.21,Wunderground v.1.15,2013-07-17 02:07:00,
2013-07-16 21:12:00,75.3,73.8,30.18,North,9,0.0,0.0,95,0.00,,,0.21,Wunderground v.1.15,2013-07-17 02:12:00,
2013-07-16 21:17:00,75.2,73.7,30.18,North,9,0.0,0.0,95,0.00,,,0.21,Wunderground v.1.15,2013-07-17 02:17:00,
2013-07-16 21:22:00,75.2,73.7,30.18,North,9,0.0,0.0,95,0.00,,,0.21,Wunderground v.1.15,2013-07-17 02:22:00,
2013-07-16 21:27:00,75.0,73.5,30.18,North,9,0.0,0.0,95,0.00,,,0.21,Wunderground v.1.15,2013-07-17 02:27:00,
2013-07-16 21:32:00,74.8,73.3,30.18,NE,49,1.0,1.0,95,0.00,,,0.21,Wunderground v.1.15,2013-07-17 02:32:00,
2013-07-16 21:37:00,74.5,73.0,30.19,NE,48,0.0,1.0,95,0.00,,,0.21,Wunderground v.1.15,2013-07-17 02:37:00,
2013-07-16 21:42:00,74.4,72.9,30.19,NE,47,0.0,0.0,95,0.00,,,0.21,Wunderground v.1.15,2013-07-17 02:42:00,
2013-07-16 21:47:00,74.3,72.8,30.19,NE,47,0.0,0.0,95,0.00,,,0.21,Wunderground v.1.15,2013-07-17 02:47:00,
2013-07-16 21:52:00,74.2,72.7,30.19,NE,46,0.0,0.0,95,0.00,,,0.21,Wunderground v.1.15,2013-07-17 02:52:00,
2013-07-16 21:57:00,74.1,72.6,30.19,NE,47,0.0,0.0,95,0.00,,,0.21,Wunderground v.1.15,2013-07-17 02:57:00,
2013-07-16 22:02:00,74.1,72.6,30.20,NE,47,0.0,0.0,95,0.00,,,0.21,Wunderground v.1.15,2013-07-17 03:02:00,
2013-07-16 22:07:00,73.9,72.4,30.20,NE,47,0.0,0.0,95,0.00,,,0.21,Wunderground v.1.15,2013-07-17 03:07:00,
2013-07-16 22:12:00,73.9,72.7,30.21,NE,47,0.0,0.0,96,0.00,,,0.21,Wunderground v.1.15,2013-07-17 03:12:00,
2013-07-16 22:17:00,73.8,72.6,30.21,NE,47,0.0,0.0,96,0.00,,,0.21,Wunderground v.1.15,2013-07-17 03:17:00,
2013-07-16 22:22:00,73.8,72.6,30.21,NE,47,0.0,0.0,96,0.00,,,0.21,Wunderground v.1.15,2013-07-17 03:22:00,
2013-07-16 22:27:00,73.6,72.4,30.21,NE,47,0.0,0.0,96,0.00,,,0.21,Wunderground v.1.15,2013-07-17 03:27:00,
2013-07-16 22:32:00,73.5,72.3,30.21,NE,47,0.0,0.0,96,0.00,,,0.21,Wunderground v.1.15,2013-07-17 03:32:00,
2013-07-16 22:37:00,73.4,72.2,30.22,NE,47,0.0,0.0,96,0.00,,,0.21,Wunderground v.1.15,2013-07-17 03:37:00,
2013-07-16 22:42:00,73.2,71.7,30.22,NE,47,0.0,0.0,95,0.00,,,0.21,Wunderground v.1.15,2013-07-17 03:42:00,
2013-07-16 22:47:00,72.9,71.4,30.22,NE,46,0.0,0.0,95,0.00,,,0.21,Wunderground v.1.15,2013-07-17 03:47:00,
2013-07-16 22:52:00,72.7,71.2,30.22,NE,47,0.0,0.0,95,0.00,,,0.21,Wunderground v.1.15,2013-07-17 03:52:00,
2013-07-16 22:57:00,72.6,71.4,30.22,NE,47,0.0,0.0,96,0.00,,,0.21,Wunderground v.1.15,2013-07-17 03:57:00,
2013-07-16 23:01:00,72.5,71.3,30.22,NE,47,0.0,0.0,96,0.00,,,0.21,Wunderground v.1.15,2013-07-17 04:01:00,
2013-07-16 23:06:00,72.5,71.3,30.23,NE,47,0.0,0.0,96,0.00,,,0.21,Wunderground v.1.15,2013-07-17 04:06:00,
2013-07-16 23:11:00,72.3,71.1,30.23,NE,47,0.0,0.0,96,0.00,,,0.21,Wunderground v.1.15,2013-07-17 04:11:00,
2013-07-16 23:16:00,72.2,71.0,30.23,NE,47,0.0,0.0,96,0.00,,,0.21,Wunderground v.1.15,2013-07-17 04:16:00,
2013-07-16 23:21:00,72.1,70.9,30.23,NE,47,0.0,0.0,96,0.00,,,0.21,Wunderground v.1.15,2013-07-17 04:21:00,
2013-07-16 23:26:00,72.1,70.9,30.23,NE,47,0.0,0.0,96,0.00,,,0.21,Wunderground v.1.15,2013-07-17 04:26:00,
2013-07-16 23:31:00,71.9,70.7,30.23,NE,47,0.0,0.0,96,0.00,,,0.21,Wunderground v.1.15,2013-07-17 04:31:00,
2013-07-16 23:36:00,71.9,70.7,30.23,NE,47,0.0,0.0,96,0.00,,,0.21,Wunderground v.1.15,2013-07-17 04:36:00,
2013-07-16 23:41:00,71.8,70.6,30.23,NE,47,0.0,0.0,96,0.00,,,0.21,Wunderground v.1.15,2013-07-17 04:41:00,
2013-07-16 23:46:00,71.6,70.4,30.23,NE,47,0.0,0.0,96,0.00,,,0.21,Wunderground v.1.15,2013-07-17 04:46:00,
2013-07-16 23:51:00,71.7,70.5,30.23,NE,47,0.0,0.0,96,0.00,,,0.21,Wunderground v.1.15,2013-07-17 04:51:00,
2013-07-16 23:55:00,71.7,70.5,30.23,NE,47,0.0,0.0,96,0.00,,,0.21,Wunderground v.1.15,2013-07-17 04:55:00,
2013-07-16 23:59:00,71.6,70.4,30.23,NE,47,0.0,0.0,96,0.00,,,0.21,Wunderground v.1.15,2013-07-17 04:59:00,